sensor_id;sensor_type;location;lat;lon;timestamp;temperature;humidity
52073;DHT22;38074;51.232;6.826;2023-06-19T00:02:42;27.00;46.60
52073;DHT22;38074;51.232;6.826;2023-06-19T00:09:57;27.00;46.70
52073;DHT22;38074;51.232;6.826;2023-06-19T00:17:13;27.10;46.80
52073;DHT22;38074;51.232;6.826;2023-06-19T00:24:31;27.00;46.80
52073;DHT22;38074;51.232;6.826;2023-06-19T00:31:47;27.00;46.90
52073;DHT22;38074;51.232;6.826;2023-06-19T00:39:03;27.00;46.90
52073;DHT22;38074;51.232;6.826;2023-06-19T00:46:18;27.00;47.00
52073;DHT22;38074;51.232;6.826;2023-06-19T00:53:34;27.10;47.00
52073;DHT22;38074;51.232;6.826;2023-06-19T01:00:50;27.00;47.00
52073;DHT22;38074;51.232;6.826;2023-06-19T01:08:43;27.10;47.00
52073;DHT22;38074;51.232;6.826;2023-06-19T01:16:03;27.00;47.00
52073;DHT22;38074;51.232;6.826;2023-06-19T01:23:19;27.00;47.70
52073;DHT22;38074;51.232;6.826;2023-06-19T01:30:36;27.00;47.00
52073;DHT22;38074;51.232;6.826;2023-06-19T01:37:52;27.10;47.10
52073;DHT22;38074;51.232;6.826;2023-06-19T01:45:09;27.00;47.10
52073;DHT22;38074;51.232;6.826;2023-06-19T01:52:25;27.00;47.00
52073;DHT22;38074;51.232;6.826;2023-06-19T01:59:40;27.00;47.10
52073;DHT22;38074;51.232;6.826;2023-06-19T02:06:56;27.00;47.20
52073;DHT22;38074;51.232;6.826;2023-06-19T02:14:11;27.10;47.40
52073;DHT22;38074;51.232;6.826;2023-06-19T02:21:27;27.00;47.40
52073;DHT22;38074;51.232;6.826;2023-06-19T02:28:43;27.00;47.40
52073;DHT22;38074;51.232;6.826;2023-06-19T02:35:59;27.00;47.40
52073;DHT22;38074;51.232;6.826;2023-06-19T02:43:14;27.00;47.50
52073;DHT22;38074;51.232;6.826;2023-06-19T02:50:30;26.80;48.60
52073;DHT22;38074;51.232;6.826;2023-06-19T02:57:46;26.70;48.40
52073;DHT22;38074;51.232;6.826;2023-06-19T03:05:02;26.60;48.60
52073;DHT22;38074;51.232;6.826;2023-06-19T03:12:18;26.40;48.80
52073;DHT22;38074;51.232;6.826;2023-06-19T03:19:33;26.20;49.30
52073;DHT22;38074;51.232;6.826;2023-06-19T03:26:49;26.20;49.60
52073;DHT22;38074;51.232;6.826;2023-06-19T03:34:05;26.20;49.60
52073;DHT22;38074;51.232;6.826;2023-06-19T03:41:20;26.00;50.10
52073;DHT22;38074;51.232;6.826;2023-06-19T03:48:36;26.10;50.30
52073;DHT22;38074;51.232;6.826;2023-06-19T03:55:51;26.20;50.30
52073;DHT22;38074;51.232;6.826;2023-06-19T04:03:07;26.20;50.50
52073;DHT22;38074;51.232;6.826;2023-06-19T04:10:24;25.90;51.20
52073;DHT22;38074;51.232;6.826;2023-06-19T04:17:40;25.80;51.50
52073;DHT22;38074;51.232;6.826;2023-06-19T04:24:55;25.70;51.90
52073;DHT22;38074;51.232;6.826;2023-06-19T04:32:11;25.90;52.10
52073;DHT22;38074;51.232;6.826;2023-06-19T04:39:26;25.90;52.20
52073;DHT22;38074;51.232;6.826;2023-06-19T04:46:42;25.70;52.80
52073;DHT22;38074;51.232;6.826;2023-06-19T04:54:00;25.70;52.80
52073;DHT22;38074;51.232;6.826;2023-06-19T05:01:16;25.80;53.10
52073;DHT22;38074;51.232;6.826;2023-06-19T05:08:31;25.90;52.90
52073;DHT22;38074;51.232;6.826;2023-06-19T05:15:46;25.90;53.10
52073;DHT22;38074;51.232;6.826;2023-06-19T05:23:02;25.90;53.10
52073;DHT22;38074;51.232;6.826;2023-06-19T05:30:18;25.70;53.80
52073;DHT22;38074;51.232;6.826;2023-06-19T05:37:34;25.70;53.90
52073;DHT22;38074;51.232;6.826;2023-06-19T05:44:50;25.80;54.70
52073;DHT22;38074;51.232;6.826;2023-06-19T05:52:06;25.90;54.30
52073;DHT22;38074;51.232;6.826;2023-06-19T05:59:21;25.90;54.20
52073;DHT22;38074;51.232;6.826;2023-06-19T06:06:37;25.90;54.40
52073;DHT22;38074;51.232;6.826;2023-06-19T06:13:52;25.90;54.50
52073;DHT22;38074;51.232;6.826;2023-06-19T06:21:08;25.90;54.60
52073;DHT22;38074;51.232;6.826;2023-06-19T06:28:23;26.10;54.40
52073;DHT22;38074;51.232;6.826;2023-06-19T06:35:39;26.30;54.20
52073;DHT22;38074;51.232;6.826;2023-06-19T06:42:54;26.40;53.90
52073;DHT22;38074;51.232;6.826;2023-06-19T06:50:10;26.50;53.60
52073;DHT22;38074;51.232;6.826;2023-06-19T06:57:26;26.50;53.50
52073;DHT22;38074;51.232;6.826;2023-06-19T07:04:41;26.60;52.80
52073;DHT22;38074;51.232;6.826;2023-06-19T07:11:57;26.00;53.70
52073;DHT22;38074;51.232;6.826;2023-06-19T07:19:12;25.70;54.20
52073;DHT22;38074;51.232;6.826;2023-06-19T07:26:29;25.40;55.50
52073;DHT22;38074;51.232;6.826;2023-06-19T07:33:44;25.40;55.90
52073;DHT22;38074;51.232;6.826;2023-06-19T07:41:00;25.40;56.20
52073;DHT22;38074;51.232;6.826;2023-06-19T07:48:15;25.40;56.30
52073;DHT22;38074;51.232;6.826;2023-06-19T07:55:32;25.30;56.90
52073;DHT22;38074;51.232;6.826;2023-06-19T08:02:50;25.20;57.40
52073;DHT22;38074;51.232;6.826;2023-06-19T08:10:06;25.20;58.10
52073;DHT22;38074;51.232;6.826;2023-06-19T08:17:22;25.40;57.60
52073;DHT22;38074;51.232;6.826;2023-06-19T08:24:37;25.40;57.80
52073;DHT22;38074;51.232;6.826;2023-06-19T08:31:55;25.50;57.70
52073;DHT22;38074;51.232;6.826;2023-06-19T08:39:10;25.50;57.10
52073;DHT22;38074;51.232;6.826;2023-06-19T08:46:26;25.50;57.20
52073;DHT22;38074;51.232;6.826;2023-06-19T08:53:47;25.60;57.20
52073;DHT22;38074;51.232;6.826;2023-06-19T09:01:03;25.50;57.20
52073;DHT22;38074;51.232;6.826;2023-06-19T09:08:20;25.50;56.70
52073;DHT22;38074;51.232;6.826;2023-06-19T09:15:37;25.70;56.50
52073;DHT22;38074;51.232;6.826;2023-06-19T09:22:55;25.90;55.80
52073;DHT22;38074;51.232;6.826;2023-06-19T09:30:15;26.10;55.80
52073;DHT22;38074;51.232;6.826;2023-06-19T09:37:31;26.20;55.00
52073;DHT22;38074;51.232;6.826;2023-06-19T09:44:48;26.20;54.30
52073;DHT22;38074;51.232;6.826;2023-06-19T09:52:04;26.20;54.50
52073;DHT22;38074;51.232;6.826;2023-06-19T09:59:20;26.30;54.10
52073;DHT22;38074;51.232;6.826;2023-06-19T10:06:46;26.50;53.50
52073;DHT22;38074;51.232;6.826;2023-06-19T10:14:06;26.60;53.60
52073;DHT22;38074;51.232;6.826;2023-06-19T10:21:22;26.60;53.00
52073;DHT22;38074;51.232;6.826;2023-06-19T10:28:38;26.60;52.60
52073;DHT22;38074;51.232;6.826;2023-06-19T10:35:53;26.70;52.40
52073;DHT22;38074;51.232;6.826;2023-06-19T10:43:09;26.80;52.20
52073;DHT22;38074;51.232;6.826;2023-06-19T10:50:25;26.80;51.80
52073;DHT22;38074;51.232;6.826;2023-06-19T10:57:44;26.80;51.60
52073;DHT22;38074;51.232;6.826;2023-06-19T11:05:02;26.90;51.60
52073;DHT22;38074;51.232;6.826;2023-06-19T11:12:20;26.90;51.40
52073;DHT22;38074;51.232;6.826;2023-06-19T11:19:36;27.00;51.40
52073;DHT22;38074;51.232;6.826;2023-06-19T11:26:53;27.10;51.40
52073;DHT22;38074;51.232;6.826;2023-06-19T11:34:14;27.10;51.20
52073;DHT22;38074;51.232;6.826;2023-06-19T11:41:30;27.10;51.10
52073;DHT22;38074;51.232;6.826;2023-06-19T11:48:45;27.10;50.90
52073;DHT22;38074;51.232;6.826;2023-06-19T11:56:01;27.10;50.70
52073;DHT22;38074;51.232;6.826;2023-06-19T12:03:17;27.10;51.10
52073;DHT22;38074;51.232;6.826;2023-06-19T12:10:34;27.10;50.40
52073;DHT22;38074;51.232;6.826;2023-06-19T12:17:51;27.10;50.10
52073;DHT22;38074;51.232;6.826;2023-06-19T12:25:07;27.10;50.00
52073;DHT22;38074;51.232;6.826;2023-06-19T12:32:22;27.10;49.80
52073;DHT22;38074;51.232;6.826;2023-06-19T12:39:38;27.10;49.60
52073;DHT22;38074;51.232;6.826;2023-06-19T12:46:53;27.10;49.50
52073;DHT22;38074;51.232;6.826;2023-06-19T12:54:09;27.10;49.40
52073;DHT22;38074;51.232;6.826;2023-06-19T13:01:25;27.50;48.80
52073;DHT22;38074;51.232;6.826;2023-06-19T13:08:40;27.90;48.30
52073;DHT22;38074;51.232;6.826;2023-06-19T13:15:56;28.00;47.80
52073;DHT22;38074;51.232;6.826;2023-06-19T13:23:11;28.10;47.40
52073;DHT22;38074;51.232;6.826;2023-06-19T13:30:27;28.20;47.00
52073;DHT22;38074;51.232;6.826;2023-06-19T13:37:42;28.20;46.80
52073;DHT22;38074;51.232;6.826;2023-06-19T13:44:58;28.30;46.60
52073;DHT22;38074;51.232;6.826;2023-06-19T13:52:14;28.30;46.50
52073;DHT22;38074;51.232;6.826;2023-06-19T13:59:30;28.30;46.50
52073;DHT22;38074;51.232;6.826;2023-06-19T14:06:45;28.40;47.00
52073;DHT22;38074;51.232;6.826;2023-06-19T14:14:01;28.10;47.10
52073;DHT22;38074;51.232;6.826;2023-06-19T14:21:16;28.00;47.60
52073;DHT22;38074;51.232;6.826;2023-06-19T14:28:32;28.00;47.90
52073;DHT22;38074;51.232;6.826;2023-06-19T14:35:47;28.00;48.10
52073;DHT22;38074;51.232;6.826;2023-06-19T14:43:03;28.00;48.20
52073;DHT22;38074;51.232;6.826;2023-06-19T14:50:19;28.00;48.30
52073;DHT22;38074;51.232;6.826;2023-06-19T14:57:35;28.00;48.40
52073;DHT22;38074;51.232;6.826;2023-06-19T15:04:51;28.00;48.60
52073;DHT22;38074;51.232;6.826;2023-06-19T15:12:06;28.00;48.70
52073;DHT22;38074;51.232;6.826;2023-06-19T15:19:22;28.00;48.80
52073;DHT22;38074;51.232;6.826;2023-06-19T15:26:39;28.00;48.90
52073;DHT22;38074;51.232;6.826;2023-06-19T15:33:54;28.00;48.70
52073;DHT22;38074;51.232;6.826;2023-06-19T15:41:10;27.90;48.70
52073;DHT22;38074;51.232;6.826;2023-06-19T15:48:28;27.80;48.60
52073;DHT22;38074;51.232;6.826;2023-06-19T15:55:44;27.80;48.40
52073;DHT22;38074;51.232;6.826;2023-06-19T16:03:00;27.70;48.30
52073;DHT22;38074;51.232;6.826;2023-06-19T16:10:16;27.60;48.10
52073;DHT22;38074;51.232;6.826;2023-06-19T16:17:31;27.60;47.90
52073;DHT22;38074;51.232;6.826;2023-06-19T16:24:47;27.60;47.90
52073;DHT22;38074;51.232;6.826;2023-06-19T16:32:03;27.60;47.80
52073;DHT22;38074;51.232;6.826;2023-06-19T16:39:19;27.60;47.60
52073;DHT22;38074;51.232;6.826;2023-06-19T16:46:36;27.60;47.80
52073;DHT22;38074;51.232;6.826;2023-06-19T16:53:51;27.60;47.50
52073;DHT22;38074;51.232;6.826;2023-06-19T17:01:07;27.50;47.40
52073;DHT22;38074;51.232;6.826;2023-06-19T17:08:22;27.50;47.30
52073;DHT22;38074;51.232;6.826;2023-06-19T17:15:38;27.60;47.50
52073;DHT22;38074;51.232;6.826;2023-06-19T17:22:54;27.60;47.60
52073;DHT22;38074;51.232;6.826;2023-06-19T17:30:11;27.60;47.60
52073;DHT22;38074;51.232;6.826;2023-06-19T17:37:26;27.70;47.80
52073;DHT22;38074;51.232;6.826;2023-06-19T17:44:42;27.60;47.90
52073;DHT22;38074;51.232;6.826;2023-06-19T17:51:57;27.60;48.10
52073;DHT22;38074;51.232;6.826;2023-06-19T17:59:13;27.60;48.20
52073;DHT22;38074;51.232;6.826;2023-06-19T18:06:29;27.70;48.50
52073;DHT22;38074;51.232;6.826;2023-06-19T18:13:44;27.70;48.80
52073;DHT22;38074;51.232;6.826;2023-06-19T18:21:00;27.70;49.00
52073;DHT22;38074;51.232;6.826;2023-06-19T18:28:15;27.70;49.10
52073;DHT22;38074;51.232;6.826;2023-06-19T18:35:31;27.70;49.20
52073;DHT22;38074;51.232;6.826;2023-06-19T18:42:48;27.60;49.20
52073;DHT22;38074;51.232;6.826;2023-06-19T18:50:04;27.60;49.20
52073;DHT22;38074;51.232;6.826;2023-06-19T18:57:20;27.60;49.20
52073;DHT22;38074;51.232;6.826;2023-06-19T19:04:42;27.60;49.30
52073;DHT22;38074;51.232;6.826;2023-06-19T19:11:59;27.60;49.30
52073;DHT22;38074;51.232;6.826;2023-06-19T19:19:14;27.70;49.40
52073;DHT22;38074;51.232;6.826;2023-06-19T19:26:30;27.60;49.30
52073;DHT22;38074;51.232;6.826;2023-06-19T19:33:47;27.60;49.20
52073;DHT22;38074;51.232;6.826;2023-06-19T19:41:03;27.60;49.20
52073;DHT22;38074;51.232;6.826;2023-06-19T19:48:18;27.60;49.10
52073;DHT22;38074;51.232;6.826;2023-06-19T19:55:35;27.60;49.00
52073;DHT22;38074;51.232;6.826;2023-06-19T20:02:51;27.50;48.80
52073;DHT22;38074;51.232;6.826;2023-06-19T20:10:07;27.50;48.70
52073;DHT22;38074;51.232;6.826;2023-06-19T20:17:22;27.50;48.60
52073;DHT22;38074;51.232;6.826;2023-06-19T20:24:38;27.50;48.50
52073;DHT22;38074;51.232;6.826;2023-06-19T20:31:54;27.40;47.40
52073;DHT22;38074;51.232;6.826;2023-06-19T20:39:09;27.30;46.70
52073;DHT22;38074;51.232;6.826;2023-06-19T20:46:25;27.20;46.40
52073;DHT22;38074;51.232;6.826;2023-06-19T20:53:40;27.20;45.90
52073;DHT22;38074;51.232;6.826;2023-06-19T21:00:56;27.10;45.30
52073;DHT22;38074;51.232;6.826;2023-06-19T21:08:11;27.10;44.90
52073;DHT22;38074;51.232;6.826;2023-06-19T21:15:27;27.10;44.90
52073;DHT22;38074;51.232;6.826;2023-06-19T21:22:43;27.10;44.90
52073;DHT22;38074;51.232;6.826;2023-06-19T21:29:58;27.20;44.80
52073;DHT22;38074;51.232;6.826;2023-06-19T21:37:14;27.20;44.80
52073;DHT22;38074;51.232;6.826;2023-06-19T21:44:29;27.20;44.60
52073;DHT22;38074;51.232;6.826;2023-06-19T21:51:45;27.10;44.50
52073;DHT22;38074;51.232;6.826;2023-06-19T21:59:01;27.10;44.50
52073;DHT22;38074;51.232;6.826;2023-06-19T22:06:16;27.00;44.50
52073;DHT22;38074;51.232;6.826;2023-06-19T22:13:32;26.90;44.50
52073;DHT22;38074;51.232;6.826;2023-06-19T22:20:48;26.90;44.60
52073;DHT22;38074;51.232;6.826;2023-06-19T22:28:04;27.00;44.70
52073;DHT22;38074;51.232;6.826;2023-06-19T22:35:20;27.00;44.70
52073;DHT22;38074;51.232;6.826;2023-06-19T22:42:35;27.10;44.70
52073;DHT22;38074;51.232;6.826;2023-06-19T22:49:53;27.10;44.70
52073;DHT22;38074;51.232;6.826;2023-06-19T22:57:08;27.10;44.60
52073;DHT22;38074;51.232;6.826;2023-06-19T23:04:24;27.10;44.60
52073;DHT22;38074;51.232;6.826;2023-06-19T23:11:39;27.10;44.90
52073;DHT22;38074;51.232;6.826;2023-06-19T23:18:55;27.10;44.90
52073;DHT22;38074;51.232;6.826;2023-06-19T23:26:11;27.10;44.90
52073;DHT22;38074;51.232;6.826;2023-06-19T23:33:28;27.10;44.90
52073;DHT22;38074;51.232;6.826;2023-06-19T23:40:44;27.00;45.20
52073;DHT22;38074;51.232;6.826;2023-06-19T23:47:59;27.00;45.30
52073;DHT22;38074;51.232;6.826;2023-06-19T23:55:15;27.00;45.40
